Time;durP1;ratioP1;P1;durP2;ratioP2;P2;SDS_P1;SDS_P2;PMS_P1;PMS_P2;Temp;Humidity;BMP_temperature;BMP_pressure;BME280_temperature;BME280_humidity;BME280_pressure;Samples;Min_cycle;Max_cycle;Signal;HPM_P1;HPM_P2
2022/03/11 00:02:04;;;;;;;14.93;6.70;;;;;;;14.33;33.54;101687.38;5086676;28;20060;-49
2022/03/11 00:04:30;;;;;;;14.27;7.25;;;;;;;14.23;33.46;101694.97;5084509;28;20025;-49
2022/03/11 00:06:55;;;;;;;13.53;6.43;;;;;;;14.23;33.63;101687.75;5080504;28;20056;-45
2022/03/11 00:09:22;;;;;;;17.52;7.25;;;;;;;14.36;33.52;101695.03;5090535;28;20036;-48
2022/03/11 00:11:48;;;;;;;16.88;6.93;;;;;;;14.41;33.49;101689.03;5078490;28;20028;-47
2022/03/11 00:14:14;;;;;;;14.57;6.95;;;;;;;14.17;33.66;101686.66;5085966;28;20029;-47
2022/03/11 00:16:40;;;;;;;15.05;7.25;;;;;;;14.27;33.67;101690.84;5085778;28;20044;-49
2022/03/11 00:19:05;;;;;;;15.77;7.63;;;;;;;14.14;33.57;101681.69;5078683;28;20025;-46
2022/03/11 00:21:33;;;;;;;18.50;7.53;;;;;;;14.08;33.74;101678.94;5090244;28;20055;-47
2022/03/11 00:23:58;;;;;;;17.73;8.37;;;;;;;13.97;33.95;101674.97;5079642;28;20092;-45
2022/03/11 00:26:24;;;;;;;16.02;7.65;;;;;;;13.98;33.96;101672.09;5084674;28;20036;-46
2022/03/11 00:28:50;;;;;;;16.87;6.93;;;;;;;14.03;34.02;101666.09;5076739;28;20040;-45
2022/03/11 00:31:15;;;;;;;20.58;8.05;;;;;;;14.05;34.00;101662.19;5094395;28;20036;-45
2022/03/11 00:33:42;;;;;;;14.45;6.85;;;;;;;14.04;33.76;101676.66;5064816;28;20028;-48
2022/03/11 00:36:08;;;;;;;16.00;7.60;;;;;;;13.69;34.01;101673.13;5092712;28;20032;-44
2022/03/11 00:38:33;;;;;;;16.37;8.23;;;;;;;13.70;34.24;101670.22;5087066;28;20045;-45
2022/03/11 00:40:59;;;;;;;14.67;7.60;;;;;;;13.93;34.13;101660.25;5091783;28;20103;-45
2022/03/11 00:43:26;;;;;;;15.80;8.40;;;;;;;13.72;34.40;101667.34;5081067;28;20040;-48
2022/03/11 00:45:53;;;;;;;13.88;7.15;;;;;;;13.85;34.08;101666.63;5092915;28;20040;-44
2022/03/11 00:48:18;;;;;;;;;;;;;;;13.71;34.28;101671.88;5086333;28;20092;-49
2022/03/11 00:50:44;;;;;;;17.23;7.40;;;;;;;13.79;34.53;101662.03;5085347;28;19919;-49
2022/03/11 00:53:09;;;;;;;20.67;8.05;;;;;;;13.76;34.32;101671.31;5092747;28;20032;-51
2022/03/11 00:55:35;;;;;;;22.67;7.70;;;;;;;13.58;34.56;101666.44;5080545;28;20052;-44
2022/03/11 00:58:01;;;;;;;17.13;7.85;;;;;;;13.43;34.77;101661.97;5091293;28;20025;-49
2022/03/11 01:00:26;;;;;;;20.13;8.77;;;;;;;13.73;34.43;101667.16;5086935;28;20051;-47
2022/03/11 01:02:52;;;;;;;17.37;7.53;;;;;;;13.54;34.59;101665.16;5084421;28;20044;-49
2022/03/11 01:05:22;;;;;;;16.67;7.75;;;;;;;13.69;34.49;101651.63;5093560;28;20067;-46
2022/03/11 01:07:48;;;;;;;18.25;7.22;;;;;;;13.70;34.59;101653.28;5081282;28;20035;-45
2022/03/11 01:10:14;;;;;;;17.88;7.95;;;;;;;13.46;34.66;101650.00;5089346;28;20032;-46
2022/03/11 01:12:40;;;;;;;18.42;7.90;;;;;;;13.23;34.91;101644.81;5087619;28;20100;-49
2022/03/11 01:15:06;;;;;;;18.20;8.53;;;;;;;13.44;34.86;101642.13;5082064;28;20033;-47
2022/03/11 01:17:32;;;;;;;17.30;8.40;;;;;;;13.38;34.85;101634.81;5093357;28;20034;-45
2022/03/11 01:19:59;;;;;;;18.52;8.52;;;;;;;13.40;34.89;101638.16;5082114;28;20044;-45
2022/03/11 01:22:24;;;;;;;18.00;7.67;;;;;;;13.43;34.83;101636.97;5087013;28;20082;-44
2022/03/11 01:24:50;;;;;;;17.07;7.30;;;;;;;13.53;34.50;101636.63;5084085;28;20035;-46
2022/03/11 01:27:16;;;;;;;16.77;7.80;;;;;;;13.38;34.93;101632.13;5092975;28;20265;-46
2022/03/11 01:29:41;;;;;;;22.03;8.60;;;;;;;13.61;34.76;101631.09;5080024;28;20040;-45
2022/03/11 01:32:07;;;;;;;17.57;7.87;;;;;;;13.36;34.96;101626.13;5089843;28;20096;-48
2022/03/11 01:34:32;;;;;;;20.60;8.50;;;;;;;13.49;34.78;101628.13;5086758;28;20038;-46
2022/03/11 01:36:58;;;;;;;18.13;8.80;;;;;;;13.28;34.87;101619.03;5082818;28;20036;-46
2022/03/11 01:39:23;;;;;;;17.27;7.93;;;;;;;13.26;34.64;101620.25;5092200;28;20158;-48
2022/03/11 01:41:49;;;;;;;17.40;7.53;;;;;;;13.17;35.08;101617.72;5080537;28;20032;-44
2022/03/11 01:44:14;;;;;;;20.73;7.73;;;;;;;13.15;35.04;101613.56;5088831;28;20040;-45
2022/03/11 01:46:40;;;;;;;19.30;8.47;;;;;;;13.26;34.77;101615.72;5087631;28;20059;-44
2022/03/11 01:49:07;;;;;;;19.43;8.87;;;;;;;13.34;34.84;101602.13;5096548;28;20036;-47
2022/03/11 01:51:37;;;;;;;17.58;8.82;;;;;;;13.31;34.69;101596.34;5079645;28;20096;-48
2022/03/11 01:54:03;;;;;;;21.48;8.35;;;;;;;13.27;34.71;101598.56;5090297;28;20032;-46
2022/03/11 01:56:30;;;;;;;19.90;9.43;;;;;;;13.30;34.62;101590.13;5085730;28;20037;-47
2022/03/11 01:58:57;;;;;;;18.08;8.07;;;;;;;13.28;34.44;101591.38;5082831;28;20033;-49
2022/03/11 02:01:23;;;;;;;19.27;8.57;;;;;;;13.28;34.56;101586.00;5064981;28;20043;-49
2022/03/11 02:03:50;;;;;;;20.17;8.05;;;;;;;13.17;34.75;101577.44;5092297;28;20044;-46
2022/03/11 02:06:17;;;;;;;16.25;8.60;;;;;;;13.26;34.76;101571.91;5083795;28;20040;-47
2022/03/11 02:08:42;;;;;;;;;;;;;;;13.30;34.95;101567.81;5085186;28;20036;-45
2022/03/11 02:11:09;;;;;;;22.83;8.97;;;;;;;13.11;34.81;101570.16;5090843;28;19935;-47
2022/03/11 02:13:43;;;;;;;18.08;7.82;;;;;;;13.10;34.84;101567.66;5079032;28;20037;-50
2022/03/11 02:16:11;;;;;;;24.10;8.95;;;;;;;13.23;34.73;101565.06;5089212;28;20033;-47
2022/03/11 02:18:37;;;;;;;18.65;8.05;;;;;;;13.08;35.20;101558.97;5086426;28;20032;-47
2022/03/11 02:21:03;;;;;;;14.37;7.27;;;;;;;13.06;35.11;101556.50;5081338;28;20072;-49
2022/03/11 02:23:29;;;;;;;17.90;8.80;;;;;;;13.01;35.07;101549.00;5091966;28;20052;-47
2022/03/11 02:25:54;;;;;;;20.08;7.70;;;;;;;12.96;35.03;101551.44;5080572;28;20080;-49
2022/03/11 02:28:20;;;;;;;15.67;7.77;;;;;;;13.00;35.17;101547.34;5087527;28;20040;-50
2022/03/11 02:30:45;;;;;;;16.97;7.97;;;;;;;12.98;35.29;101540.50;5087401;28;20032;-46
2022/03/11 02:33:11;;;;;;;19.30;7.93;;;;;;;12.84;35.14;101539.56;5080308;28;20040;-46
2022/03/11 02:35:36;;;;;;;19.10;8.57;;;;;;;12.98;34.98;101540.50;5091177;28;20063;-46
2022/03/11 02:38:02;;;;;;;22.43;9.57;;;;;;;12.83;35.31;101535.22;5081212;28;20062;-45
2022/03/11 02:40:27;;;;;;;17.43;8.70;;;;;;;12.77;35.13;101536.81;5086381;28;20041;-46
2022/03/11 02:42:53;;;;;;;21.13;7.67;;;;;;;12.73;35.27;101538.22;5088105;28;20113;-46
2022/03/11 02:45:18;;;;;;;19.07;8.77;;;;;;;12.66;35.23;101534.66;5078973;28;20044;-45
2022/03/11 02:47:43;;;;;;;19.47;8.83;;;;;;;12.88;35.29;101527.41;5091867;28;20093;-50
2022/03/11 02:50:09;;;;;;;19.00;8.30;;;;;;;12.60;35.46;101522.84;5081655;28;20056;-49
2022/03/11 02:52:34;;;;;;;16.38;7.30;;;;;;;12.59;35.46;101522.03;5085128;28;20032;-50
2022/03/11 02:55:00;;;;;;;18.97;8.30;;;;;;;12.75;35.20;101522.75;5088498;28;20064;-45
2022/03/11 02:57:25;;;;;;;16.45;7.97;;;;;;;12.46;35.40;101520.03;5078281;28;20052;-49
2022/03/11 02:59:51;;;;;;;19.77;8.67;;;;;;;12.71;34.86;101516.97;5091267;28;20045;-50
2022/03/11 03:02:16;;;;;;;17.73;8.37;;;;;;;12.82;35.13;101520.13;5082520;28;20032;-46
2022/03/11 03:04:41;;;;;;;20.27;8.63;;;;;;;12.70;35.06;101520.69;5084087;28;20104;-44
2022/03/11 03:07:07;;;;;;;16.08;7.18;;;;;;;12.56;35.50;101522.38;5089308;28;20036;-46
2022/03/11 03:09:36;;;;;;;18.37;7.87;;;;;;;12.54;35.41;101520.94;5076446;28;20087;-47
2022/03/11 03:12:02;;;;;;;25.13;8.75;;;;;;;12.59;35.36;101519.34;5080120;28;20099;-46
2022/03/11 03:14:27;;;;;;;19.77;7.05;;;;;;;12.68;35.25;101522.69;5085983;28;20039;-47
2022/03/11 03:16:53;;;;;;;17.67;7.77;;;;;;;12.50;35.55;101520.47;5087322;28;20044;-45
2022/03/11 03:19:19;;;;;;;20.70;8.65;;;;;;;12.55;35.44;101518.03;5078437;28;20036;-49
2022/03/11 03:21:44;;;;;;;18.13;7.23;;;;;;;12.32;35.58;101508.31;5091036;28;20060;-46
2022/03/11 03:24:09;;;;;;;21.10;8.03;;;;;;;12.40;35.57;101515.41;5081191;28;20071;-46
2022/03/11 03:26:35;;;;;;;15.20;7.50;;;;;;;12.22;35.58;101506.97;5084812;28;20037;-47
2022/03/11 03:29:00;;;;;;;18.63;7.27;;;;;;;12.26;35.83;101519.00;5088157;28;20092;-46
2022/03/11 03:31:25;;;;;;;18.13;7.67;;;;;;;12.39;35.62;101508.41;5077974;28;20037;-50
2022/03/11 03:33:52;;;;;;;17.03;7.13;;;;;;;12.51;35.53;101503.34;5090870;28;20055;-48
2022/03/11 03:36:17;;;;;;;15.13;7.72;;;;;;;11.99;35.88;101510.59;5081813;28;20078;-46
2022/03/11 03:38:42;;;;;;;18.47;7.67;;;;;;;12.49;35.66;101502.72;5083543;28;20235;-45
2022/03/11 03:41:08;;;;;;;15.20;7.60;;;;;;;12.33;35.75;101498.44;5088731;28;20032;-49
2022/03/11 03:43:33;;;;;;;15.67;6.50;;;;;;;12.27;35.70;101502.69;5077780;28;20033;-44
2022/03/11 03:45:59;;;;;;;14.53;6.27;;;;;;;12.42;35.67;101497.28;5089786;28;20048;-43
2022/03/11 03:48:25;;;;;;;13.98;6.50;;;;;;;12.29;35.60;101502.53;5082940;28;20041;-45
2022/03/11 03:50:51;;;;;;;23.35;7.18;;;;;;;12.17;35.96;101497.66;5082640;28;20051;-47
2022/03/11 03:53:17;;;;;;;17.70;7.88;;;;;;;11.96;35.96;101500.25;5090271;28;20094;-47
2022/03/11 03:55:43;;;;;;;12.68;6.88;;;;;;;12.18;35.90;101502.00;5078537;28;20051;-49
2022/03/11 03:58:08;;;;;;;16.97;7.03;;;;;;;12.18;36.05;101490.44;5088603;28;20085;-47
2022/03/11 04:00:34;;;;;;;15.40;7.03;;;;;;;12.25;36.00;101491.34;5083826;28;20303;-46
2022/03/11 04:02:59;;;;;;;14.50;7.57;;;;;;;12.25;35.88;101493.22;5082527;28;20033;-47
2022/03/11 04:05:25;;;;;;;16.40;7.70;;;;;;;12.14;36.31;101511.44;5078320;28;20093;-49
2022/03/11 04:07:52;;;;;;;15.30;7.82;;;;;;;12.02;36.38;101495.00;5094716;28;20025;-47
2022/03/11 04:10:20;;;;;;;12.75;6.85;;;;;;;11.98;36.31;101496.38;5085604;28;20056;-46
2022/03/11 04:12:46;;;;;;;14.77;6.90;;;;;;;12.22;36.07;101488.19;5087037;28;20112;-47
2022/03/11 04:15:12;;;;;;;13.90;6.93;;;;;;;11.65;36.97;101490.63;5093057;28;20046;-48
2022/03/11 04:17:38;;;;;;;15.95;7.18;;;;;;;12.17;36.43;101486.94;5081583;28;20032;-46
2022/03/11 04:20:05;;;;;;;14.27;6.43;;;;;;;12.26;36.37;101493.00;5092675;28;20067;-46
2022/03/11 04:22:31;;;;;;;17.38;7.13;;;;;;;12.25;36.15;101491.34;5086917;28;20037;-45
2022/03/11 04:24:56;;;;;;;13.73;7.10;;;;;;;12.07;36.29;101494.47;5085297;28;20039;-46
2022/03/11 04:27:21;;;;;;;13.40;6.50;;;;;;;12.08;36.37;101490.75;5094201;28;20032;-45
2022/03/11 04:29:47;;;;;;;14.27;6.60;;;;;;;12.03;36.36;101487.81;5081452;28;20028;-45
2022/03/11 04:32:12;;;;;;;16.67;6.77;;;;;;;12.01;36.77;101487.19;5091506;28;20074;-44
2022/03/11 04:34:42;;;;;;;15.23;6.68;;;;;;;12.22;36.51;101480.16;5088383;28;20037;-49
2022/03/11 04:37:07;;;;;;;15.17;7.40;;;;;;;12.21;36.33;101473.97;5083285;28;20097;-48
2022/03/11 04:39:33;;;;;;;12.53;6.50;;;;;;;12.04;36.76;101482.25;5094289;28;20039;-49
2022/03/11 04:41:59;;;;;;;13.48;6.85;;;;;;;11.92;37.30;101481.06;5082365;28;20029;-47
2022/03/11 04:44:24;;;;;;;14.33;6.57;;;;;;;12.05;37.14;101470.50;5089742;28;20028;-47
2022/03/11 04:46:50;;;;;;;17.30;7.67;;;;;;;11.85;37.43;101480.13;5089429;28;20042;-48
2022/03/11 04:49:16;;;;;;;19.75;7.40;;;;;;;12.08;36.95;101482.72;5082228;28;20060;-48
2022/03/11 04:51:42;;;;;;;19.98;7.75;;;;;;;11.97;37.20;101484.00;5093996;28;20032;-48
2022/03/11 04:54:08;;;;;;;14.52;7.15;;;;;;;11.95;37.26;101488.72;5083046;28;20055;-47
2022/03/11 04:56:34;;;;;;;18.13;6.82;;;;;;;11.80;37.53;101482.56;5087944;28;20116;-47
2022/03/11 04:59:00;;;;;;;14.52;7.15;;;;;;;11.93;37.55;101484.56;5090006;28;20036;-50
2022/03/11 05:01:27;;;;;;;12.40;6.38;;;;;;;11.44;38.38;101476.13;5080704;28;20048;-45
2022/03/11 05:03:53;;;;;;;11.43;5.97;;;;;;;11.16;38.60;101482.94;5093694;28;20021;-45
2022/03/11 05:06:18;;;;;;;10.53;5.43;;;;;;;11.32;38.81;101476.63;5084346;28;20036;-49
2022/03/11 05:08:44;;;;;;;12.37;6.17;;;;;;;11.60;38.44;101467.91;5086754;28;20051;-46
2022/03/11 05:11:10;;;;;;;14.15;6.38;;;;;;;11.61;38.18;101466.03;5083433;28;20029;-48
2022/03/11 05:13:36;;;;;;;17.10;7.78;;;;;;;11.35;38.78;101469.22;5093442;28;20107;-50
2022/03/11 05:16:01;;;;;;;14.17;6.60;;;;;;;11.36;38.79;101465.53;5081025;28;20036;-45
2022/03/11 05:18:27;;;;;;;14.73;5.90;;;;;;;11.40;38.83;101466.81;5088793;28;20097;-50
2022/03/11 05:20:53;;;;;;;17.60;6.53;;;;;;;11.69;38.61;101460.59;5088855;28;20050;-48
2022/03/11 05:23:18;;;;;;;14.70;7.30;;;;;;;11.33;39.09;101462.19;5081394;28;20117;-49
2022/03/11 05:25:44;;;;;;;17.30;7.50;;;;;;;11.16;39.32;101466.06;5093363;28;20277;-45
2022/03/11 05:28:10;;;;;;;13.53;6.50;;;;;;;11.23;39.47;101458.97;5082705;28;20033;-48
2022/03/11 05:30:36;;;;;;;15.37;7.10;;;;;;;11.55;39.04;101456.94;5087473;28;20036;-45
2022/03/11 05:33:02;;;;;;;18.17;7.15;;;;;;;11.42;39.21;101451.38;5089758;28;20062;-46
2022/03/11 05:35:28;;;;;;;15.15;6.93;;;;;;;11.57;39.21;101446.84;5080122;28;20044;-46
2022/03/11 05:37:53;;;;;;;18.30;8.20;;;;;;;11.36;39.14;101444.91;5093102;28;20033;-47
2022/03/11 05:40:19;;;;;;;15.50;7.57;;;;;;;11.54;39.23;101446.38;5083812;28;20036;-46
2022/03/11 05:42:44;;;;;;;13.83;6.70;;;;;;;11.67;38.98;101446.56;5086006;28;20032;-51
2022/03/11 05:45:10;;;;;;;16.03;6.93;;;;;;;11.41;39.76;101447.84;5089508;28;20033;-45
2022/03/11 05:47:36;;;;;;;19.58;7.70;;;;;;;11.76;39.01;101442.75;5079817;28;20043;-51
2022/03/11 05:50:02;;;;;;;12.93;6.00;;;;;;;11.64;39.42;101438.88;5091323;28;20104;-46
2022/03/11 05:52:27;;;;;;;18.17;7.25;;;;;;;11.59;39.36;101441.28;5076074;28;20029;-45
2022/03/11 05:54:54;;;;;;;15.60;7.05;;;;;;;11.56;39.53;101439.00;5088212;28;20068;-48
2022/03/11 05:57:20;;;;;;;15.97;7.50;;;;;;;11.25;40.00;101438.19;5079902;28;20044;-48
2022/03/11 05:59:45;;;;;;;16.93;7.00;;;;;;;11.18;40.25;101434.59;5092745;28;20051;-46
2022/03/11 06:02:11;;;;;;;15.67;7.00;;;;;;;11.61;39.55;101434.75;5081800;28;20051;-47
2022/03/11 06:04:37;;;;;;;16.00;7.60;;;;;;;11.52;39.48;101437.72;5086646;28;20043;-49
2022/03/11 06:07:03;;;;;;;14.85;6.80;;;;;;;11.49;39.78;101433.53;5089122;28;20039;-46
2022/03/11 06:09:29;;;;;;;14.85;7.05;;;;;;;11.41;40.09;101430.97;5079268;28;20036;-45
2022/03/11 06:11:55;;;;;;;13.13;6.63;;;;;;;11.64;39.69;101427.34;5079708;28;20051;-48
2022/03/11 06:14:22;;;;;;;16.60;6.95;;;;;;;11.54;40.14;101433.84;5088964;28;20059;-48
2022/03/11 06:16:48;;;;;;;15.63;7.00;;;;;;;11.61;39.80;101432.06;5086924;28;20024;-46
2022/03/11 06:19:13;;;;;;;17.37;7.73;;;;;;;11.45;40.28;101429.59;5081406;28;20040;-45
2022/03/11 06:21:38;;;;;;;15.97;6.63;;;;;;;11.37;40.48;101427.84;5091909;28;20086;-50
2022/03/11 06:24:04;;;;;;;20.93;10.37;;;;;;;11.36;40.48;101433.38;5080457;28;20036;-51
2022/03/11 06:26:30;;;;;;;15.75;6.70;;;;;;;11.09;41.09;101428.50;5095196;28;20472;-45
2022/03/11 06:28:55;;;;;;;14.57;7.30;;;;;;;11.30;40.99;101433.13;5084076;28;20085;-46
2022/03/11 06:31:21;;;;;;;14.85;6.70;;;;;;;11.15;40.99;101438.47;5091267;28;20032;-47
2022/03/11 06:33:47;;;;;;;15.67;7.20;;;;;;;10.90;41.53;101435.22;5078790;28;20129;-48
2022/03/11 06:36:12;;;;;;;16.23;7.37;;;;;;;11.12;41.35;101425.44;5089519;28;20033;-44
2022/03/11 06:38:38;;;;;;;15.97;7.43;;;;;;;11.17;41.34;101435.59;5084915;28;20044;-51
2022/03/11 06:41:06;;;;;;;21.23;7.60;;;;;;;11.50;40.69;101437.06;5082108;28;20131;-45
2022/03/11 06:43:31;;;;;;;15.90;7.43;;;;;;;11.47;41.13;101435.56;5091931;28;20040;-45
2022/03/11 06:45:56;;;;;;;13.57;7.40;;;;;;;11.35;40.98;101432.53;5079103;28;20036;-43
2022/03/11 06:48:22;;;;;;;19.93;8.07;;;;;;;11.21;41.57;101436.06;5087421;28;20033;-47
2022/03/11 06:50:48;;;;;;;18.70;8.33;;;;;;;11.62;40.61;101440.91;5085912;28;20269;-44
2022/03/11 06:53:14;;;;;;;18.27;8.60;;;;;;;11.48;41.06;101429.22;5080683;28;20048;-46
2022/03/11 06:55:40;;;;;;;14.70;7.57;;;;;;;11.56;40.87;101434.47;5091661;28;20048;-45
2022/03/11 06:58:05;;;;;;;17.42;8.10;;;;;;;11.26;41.40;101439.03;5079959;28;20062;-47
2022/03/11 07:00:31;;;;;;;19.83;8.07;;;;;;;11.50;41.37;101442.44;5086599;28;20037;-45
2022/03/11 07:02:58;;;;;;;16.92;8.50;;;;;;;11.45;41.06;101434.94;5087047;28;20033;-45
2022/03/11 07:05:25;;;;;;;18.85;8.23;;;;;;;11.44;41.22;101435.97;5079407;28;20037;-46
2022/03/11 07:07:51;;;;;;;17.00;8.23;;;;;;;11.61;40.97;101442.78;5091346;28;20033;-47
2022/03/11 07:10:18;;;;;;;19.20;8.25;;;;;;;11.97;40.64;101429.53;5076203;28;20061;-45
2022/03/11 07:12:44;;;;;;;19.42;9.23;;;;;;;11.81;40.45;101418.06;5073753;28;20059;-47
2022/03/11 07:15:09;;;;;;;16.63;8.33;;;;;;;12.25;39.82;101426.16;5075649;28;20052;-45
2022/03/11 07:17:35;;;;;;;16.27;8.68;;;;;;;12.41;39.73;101425.88;5076316;28;20044;-46
2022/03/11 07:20:03;;;;;;;20.40;8.05;;;;;;;12.29;39.54;101422.06;5076575;28;20142;-48
2022/03/11 07:22:31;;;;;;;19.50;8.25;;;;;;;12.02;40.22;101428.00;5082238;28;20048;-47
2022/03/11 07:24:58;;;;;;;17.48;8.45;;;;;;;12.17;40.16;101425.25;5082697;28;20033;-49
2022/03/11 07:27:24;;;;;;;18.45;8.50;;;;;;;12.21;40.27;101430.22;5090267;28;20036;-47
2022/03/11 07:29:50;;;;;;;19.15;8.90;;;;;;;12.14;40.38;101431.00;5078025;28;20060;-45
2022/03/11 07:32:17;;;;;;;18.05;8.52;;;;;;;11.77;40.86;101424.81;5088334;28;20037;-45
2022/03/11 07:34:42;;;;;;;17.48;8.60;;;;;;;12.17;40.58;101430.63;5084170;28;20043;-45
2022/03/11 07:37:12;;;;;;;17.60;7.97;;;;;;;11.64;40.71;101435.38;5080177;28;20041;-45
2022/03/11 07:39:41;;;;;;;21.02;10.52;;;;;;;11.96;40.55;101422.53;5074785;28;20036;-47
2022/03/11 07:42:07;;;;;;;25.38;9.85;;;;;;;12.19;40.58;101433.13;5089565;28;20029;-49
2022/03/11 07:44:33;;;;;;;28.08;9.52;;;;;;;12.61;39.90;101428.75;5082833;28;20048;-46
2022/03/11 07:46:59;;;;;;;20.13;9.25;;;;;;;12.06;40.42;101423.09;5082405;28;20060;-49
2022/03/11 07:49:27;;;;;;;22.10;8.90;;;;;;;12.53;39.71;101418.13;5090270;28;20107;-47
2022/03/11 07:51:53;;;;;;;20.77;10.43;;;;;;;12.70;39.41;101420.53;5077190;28;20036;-46
2022/03/11 07:54:19;;;;;;;22.42;10.20;;;;;;;12.70;39.13;101415.16;5087783;28;20033;-48
2022/03/11 07:56:45;;;;;;;19.73;8.63;;;;;;;13.09;38.80;101421.00;5084357;28;20213;-46
2022/03/11 07:59:11;;;;;;;25.57;9.00;;;;;;;13.03;38.82;101426.13;5080586;28;20101;-49
2022/03/11 08:01:36;;;;;;;20.27;8.60;;;;;;;12.84;39.40;101426.81;5090857;28;20040;-49
2022/03/11 08:04:03;;;;;;;19.60;8.50;;;;;;;13.22;39.21;101425.59;5078090;28;20028;-47
2022/03/11 08:06:30;;;;;;;19.60;9.77;;;;;;;13.76;38.24;101430.22;5086549;28;20047;-47
2022/03/11 08:08:56;;;;;;;18.58;9.18;;;;;;;13.10;38.36;101422.66;5085511;28;20048;-46
2022/03/11 08:11:22;;;;;;;23.23;9.65;;;;;;;13.19;38.61;101422.28;5079311;28;20045;-47
2022/03/11 08:13:48;;;;;;;23.75;10.63;;;;;;;13.24;38.03;101416.31;5090151;28;20032;-46
2022/03/11 08:16:14;;;;;;;22.48;9.00;;;;;;;13.17;38.10;101416.28;5079564;28;20056;-44
2022/03/11 08:18:42;;;;;;;24.52;9.88;;;;;;;13.86;37.60;101410.16;5085111;28;20091;-45
2022/03/11 08:21:16;;;;;;;25.73;11.23;;;;;;;13.75;37.57;101406.22;5087135;28;20048;-47
2022/03/11 08:23:43;;;;;;;22.20;9.90;;;;;;;13.73;37.73;101416.34;5077376;28;20092;-45
2022/03/11 08:26:10;;;;;;;22.50;9.63;;;;;;;14.08;37.14;101407.31;5089139;28;20380;-45
2022/03/11 08:28:37;;;;;;;20.65;9.13;;;;;;;13.80;37.19;101406.44;5082361;28;20039;-48
2022/03/11 08:31:03;;;;;;;22.75;11.13;;;;;;;13.76;37.34;101405.19;5081496;28;20033;-49
2022/03/11 08:33:30;;;;;;;24.58;10.25;;;;;;;14.19;37.08;101399.47;5085463;28;20036;-48
2022/03/11 08:35:57;;;;;;;34.05;10.57;;;;;;;14.42;36.70;101398.22;5075924;28;20463;-45
2022/03/11 08:38:23;;;;;;;23.77;11.07;;;;;;;14.55;36.64;101396.59;5080494;28;20058;-47
2022/03/11 08:40:49;;;;;;;24.33;10.47;;;;;;;14.68;36.39;101393.84;5085790;28;20029;-47
2022/03/11 08:43:14;;;;;;;23.30;9.23;;;;;;;14.93;36.01;101385.13;5079940;28;20028;-49
2022/03/11 08:45:42;;;;;;;22.17;10.32;;;;;;;14.95;35.54;101380.38;5090398;28;20036;-44
2022/03/11 08:48:09;;;;;;;22.05;9.45;;;;;;;15.33;35.10;101379.63;5078400;28;20029;-44
2022/03/11 08:50:35;;;;;;;21.13;10.48;;;;;;;15.65;34.47;101378.84;5089312;28;20033;-45
2022/03/11 08:53:01;;;;;;;20.73;10.52;;;;;;;16.15;33.78;101371.91;5089251;28;20036;-48
2022/03/11 08:55:27;;;;;;;23.30;10.70;;;;;;;15.88;33.75;101382.84;5064098;28;20128;-46
2022/03/11 08:57:52;;;;;;;21.23;10.75;;;;;;;16.06;33.69;101379.44;5093040;28;20040;-49
2022/03/11 09:00:20;;;;;;;23.88;10.75;;;;;;;16.53;32.87;101381.75;5077130;28;20056;-48
2022/03/11 09:02:46;;;;;;;22.98;10.73;;;;;;;17.18;32.15;101390.44;5077415;28;20041;-46
2022/03/11 09:05:13;;;;;;;20.95;11.02;;;;;;;16.88;32.16;101380.38;5077016;28;20108;-46
2022/03/11 09:07:39;;;;;;;21.55;10.32;;;;;;;17.56;31.35;101372.28;5077445;28;20037;-47
2022/03/11 09:10:09;;;;;;;22.60;10.73;;;;;;;18.78;30.30;101372.00;5078213;28;20039;-48
2022/03/11 09:12:35;;;;;;;25.23;10.77;;;;;;;19.14;29.38;101374.66;5075150;28;20062;-48
2022/03/11 09:15:00;;;;;;;21.05;11.43;;;;;;;19.16;29.30;101394.25;5077027;28;20293;-49
2022/03/11 09:17:26;;;;;;;26.10;10.98;;;;;;;19.42;28.88;101373.88;5075955;28;20067;-45
2022/03/11 09:19:54;;;;;;;21.92;11.07;;;;;;;19.28;28.86;101383.38;5076976;28;20048;-48
2022/03/11 09:22:21;;;;;;;26.77;11.27;;;;;;;20.18;28.50;101385.50;5076580;28;20032;-47
2022/03/11 09:24:47;;;;;;;21.57;11.50;;;;;;;18.94;29.35;101389.44;5076707;28;20281;-48
2022/03/11 09:27:13;;;;;;;20.83;11.02;;;;;;;19.57;29.23;101375.22;5076368;28;20362;-47
2022/03/11 09:29:40;;;;;;;24.35;11.93;;;;;;;20.74;27.84;101382.00;5076850;28;20128;-50
2022/03/11 09:32:07;;;;;;;23.03;11.77;;;;;;;20.71;27.07;101385.22;5077542;28;20051;-53
2022/03/11 09:34:34;;;;;;;20.57;11.50;;;;;;;21.66;26.36;101377.94;5076569;28;20316;-46
2022/03/11 09:37:00;;;;;;;18.30;11.03;;;;;;;22.23;26.25;101367.56;5076075;28;20285;-50
2022/03/11 09:39:25;;;;;;;25.05;12.15;;;;;;;22.39;25.80;101365.75;5075206;28;20333;-44
2022/03/11 09:41:51;;;;;;;25.37;12.90;;;;;;;22.43;25.66;101364.97;5076316;28;20032;-50
2022/03/11 09:44:17;;;;;;;;;;;;;;;22.09;25.67;101370.72;5076643;28;20341;-50
2022/03/11 09:46:43;;;;;;;21.13;11.43;;;;;;;22.32;25.72;101364.09;5076417;28;19951;-47
2022/03/11 09:49:11;;;;;;;20.48;11.65;;;;;;;22.71;25.63;101352.06;5076163;28;20044;-48
2022/03/11 09:51:37;;;;;;;24.00;11.87;;;;;;;22.26;25.89;101353.41;5076148;28;20041;-48
2022/03/11 09:54:03;;;;;;;25.90;12.65;;;;;;;23.58;25.17;101352.63;5075005;28;20288;-52
2022/03/11 09:56:29;;;;;;;27.13;12.43;;;;;;;23.70;24.41;101344.19;5076019;28;20042;-50
2022/03/11 09:58:55;;;;;;;20.67;12.32;;;;;;;23.26;24.82;101346.28;5076093;28;20668;-50
2022/03/11 10:01:21;;;;;;;27.10;12.13;;;;;;;23.82;24.39;101339.28;5080770;28;20028;-49
2022/03/11 10:03:46;;;;;;;21.92;12.10;;;;;;;24.38;24.24;101332.13;5077033;28;20059;-48
2022/03/11 10:06:12;;;;;;;22.40;12.48;;;;;;;25.04;23.43;101333.00;5077675;28;20037;-48
2022/03/11 10:08:40;;;;;;;20.73;11.82;;;;;;;24.80;23.18;101337.50;5075570;28;20033;-49
2022/03/11 10:11:24;;;;;;;20.47;11.73;;;;;;;25.67;22.82;101321.69;5087039;28;20123;-52
2022/03/11 10:13:53;;;;;;;24.57;12.53;;;;;;;25.51;22.68;101321.78;5078106;28;20070;-52
2022/03/11 10:16:23;;;;;;;21.73;12.80;;;;;;;25.26;22.74;101312.63;5089695;28;20084;-50
2022/03/11 10:19:10;;;;;;;24.17;13.30;;;;;;;24.90;23.05;101332.81;5075060;28;20049;-46
2022/03/11 10:21:39;;;;;;;25.23;12.47;;;;;;;26.84;21.88;101330.91;5090966;28;20048;-49
2022/03/11 10:24:19;;;;;;;19.77;12.63;;;;;;;25.89;22.31;101327.50;5065014;28;20025;-47
2022/03/11 10:26:50;;;;;;;24.10;12.27;;;;;;;25.86;22.53;101324.53;5083957;28;20036;-49
2022/03/11 10:29:24;;;;;;;23.13;12.53;;;;;;;26.08;22.10;101315.84;5081372;28;20101;-46
2022/03/11 10:31:53;;;;;;;26.47;12.43;;;;;;;25.95;22.48;101319.25;5091337;28;20059;-48
2022/03/11 10:34:33;;;;;;;22.77;12.77;;;;;;;27.18;21.27;101313.44;5078051;28;20029;-50
2022/03/11 10:37:12;;;;;;;31.23;13.23;;;;;;;26.28;21.93;101314.00;5073522;28;20132;-45
2022/03/11 10:39:40;;;;;;;20.53;11.60;;;;;;;26.83;21.34;101302.63;5070464;28;20037;-48
2022/03/11 10:42:11;;;;;;;19.30;12.10;;;;;;;26.90;21.52;101297.66;5062128;28;20032;-48
2022/03/11 10:44:59;;;;;;;27.37;12.43;;;;;;;26.89;21.51;101301.50;5088528;28;20044;-50
2022/03/11 10:47:27;;;;;;;20.65;11.77;;;;;;;27.84;21.06;101302.53;5078833;28;20043;-49
2022/03/11 10:49:55;;;;;;;21.47;12.73;;;;;;;28.18;20.83;101295.91;5076071;28;20041;-54
2022/03/11 10:52:45;;;;;;;21.53;12.23;;;;;;;26.15;22.19;101291.63;5068434;28;20033;-49
2022/03/11 10:55:22;;;;;;;29.40;13.07;;;;;;;27.34;21.93;101289.34;5076061;28;20063;-50
2022/03/11 10:57:48;;;;;;;24.13;12.37;;;;;;;27.69;21.71;101289.06;5073322;28;20025;-50
2022/03/11 11:00:27;;;;;;;24.98;12.07;;;;;;;27.11;21.40;101291.03;5075713;28;20063;-50
2022/03/11 11:02:55;;;;;;;22.30;12.23;;;;;;;28.61;20.70;101280.19;5074951;28;20029;-53
2022/03/11 11:05:21;;;;;;;24.87;11.53;;;;;;;27.82;20.51;101282.78;5073334;28;20078;-50
2022/03/11 11:07:47;;;;;;;;;;;;;;;27.97;20.65;101294.63;5076712;28;20032;-51
2022/03/11 11:10:15;;;;;;;21.27;12.47;;;;;;;27.71;20.98;101293.13;5079285;28;19912;-51
2022/03/11 11:12:41;;;;;;;25.53;13.03;;;;;;;27.95;20.82;101289.41;5072905;28;20033;-49
2022/03/11 11:15:09;;;;;;;20.70;12.40;;;;;;;28.70;20.04;101283.84;5074782;28;20101;-50